createdAt,value
2023-04-10T00:00:08.630Z,39.80
2023-04-10T00:02:56.519Z,41.78
2023-04-10T00:05:24.162Z,44.25
2023-04-10T00:07:51.776Z,44.67
2023-04-10T00:10:19.601Z,44.15
2023-04-10T00:12:47.136Z,42.17
2023-04-10T00:15:14.390Z,37.03
2023-04-10T00:17:42.004Z,43.17
2023-04-10T00:20:10.090Z,42.38
2023-04-10T00:22:37.622Z,41.65
2023-04-10T00:25:06.616Z,42.83
2023-04-10T00:27:34.108Z,42.85
2023-04-10T00:30:02.750Z,40.33
2023-04-10T00:32:30.444Z,40.33
2023-04-10T00:34:57.709Z,44.63
2023-04-10T00:37:25.254Z,40.97
2023-04-10T00:39:52.464Z,44.30
2023-04-10T00:42:19.989Z,43.08
2023-04-10T00:44:47.266Z,44.72
2023-04-10T00:47:15.742Z,41.97
2023-04-10T00:49:43.966Z,36.70
2023-04-10T00:52:12.768Z,42.05
2023-04-10T00:54:40.832Z,38.97
2023-04-10T00:57:09.046Z,43.55
2023-04-10T00:59:36.854Z,40.53
2023-04-10T01:02:04.908Z,40.78
2023-04-10T01:04:33.925Z,41.67
2023-04-10T01:07:29.518Z,41.25
2023-04-10T01:10:29.184Z,39.35
2023-04-10T01:13:05.988Z,36.50
2023-04-10T01:16:00.451Z,30.42
2023-04-10T01:18:50.022Z,37.35
2023-04-10T01:21:18.359Z,38.63
2023-04-10T01:24:30.484Z,36.25
2023-04-10T01:27:15.502Z,36.75
2023-04-10T01:29:52.240Z,39.92
2023-04-10T01:32:23.097Z,40.72
2023-04-10T01:34:56.975Z,39.08
2023-04-10T01:37:31.241Z,33.90
2023-04-10T01:40:07.125Z,33.15
2023-04-10T01:42:44.856Z,31.20
2023-04-10T01:45:19.087Z,30.30
2023-04-10T01:47:47.629Z,27.02
2023-04-10T01:50:16.911Z,27.80
2023-04-10T01:52:46.494Z,25.48
2023-04-10T01:55:15.880Z,34.65
2023-04-10T01:57:43.721Z,43.33
2023-04-10T02:00:12.406Z,43.47
2023-04-10T02:02:39.717Z,41.30
2023-04-10T02:05:07.918Z,42.70
2023-04-10T02:08:12.493Z,42.70
2023-04-10T02:10:58.333Z,41.25
2023-04-10T02:13:29.602Z,45.28
2023-04-10T02:16:04.100Z,45.75
2023-04-10T02:18:34.989Z,42.58
2023-04-10T02:21:04.000Z,43.97
2023-04-10T02:23:31.233Z,40.70
2023-04-10T02:25:58.785Z,44.53
2023-04-10T02:28:26.259Z,44.28
2023-04-10T02:30:53.746Z,43.25
2023-04-10T02:33:21.457Z,43.70
2023-04-10T02:35:48.942Z,43.17
2023-04-10T02:38:17.391Z,45.78
2023-04-10T02:40:46.198Z,42.55
2023-04-10T02:43:13.495Z,44.17
2023-04-10T02:45:41.932Z,42.80
2023-04-10T02:48:11.052Z,42.17
2023-04-10T02:50:38.760Z,43.03
2023-04-10T02:53:06.184Z,41.88
2023-04-10T02:55:33.749Z,39.75
2023-04-10T02:58:01.010Z,47.38
2023-04-10T03:00:29.163Z,48.38
2023-04-10T03:02:56.557Z,46.20
2023-04-10T03:05:24.122Z,45.00
2023-04-10T03:07:51.668Z,44.65
2023-04-10T03:10:19.159Z,44.50
2023-04-10T03:12:48.890Z,44.22
2023-04-10T03:15:16.520Z,46.95
2023-04-10T03:17:43.815Z,45.42
2023-04-10T03:20:12.236Z,46.58
2023-04-10T03:22:39.889Z,45.72
2023-04-10T03:25:07.979Z,45.70
2023-04-10T03:27:35.787Z,43.75
2023-04-10T03:30:03.602Z,45.55
2023-04-10T03:32:31.336Z,47.13
2023-04-10T03:34:59.316Z,47.75
2023-04-10T03:37:27.844Z,50.67
2023-04-10T03:39:55.616Z,45.20
2023-04-10T03:42:23.011Z,39.03
2023-04-10T03:44:50.723Z,47.80
2023-04-10T03:47:18.053Z,43.92
2023-04-10T03:49:45.609Z,43.80
2023-04-10T03:52:12.856Z,43.72
2023-04-10T03:54:40.378Z,42.15
2023-04-10T03:57:07.772Z,45.08
2023-04-10T03:59:38.843Z,44.35
2023-04-10T04:02:07.820Z,42.03
2023-04-10T04:04:35.746Z,47.38
2023-04-10T04:07:03.067Z,44.85
2023-04-10T04:09:30.598Z,42.92
2023-04-10T04:11:57.925Z,39.22
2023-04-10T04:14:25.522Z,37.55
2023-04-10T04:16:53.041Z,46.15
2023-04-10T04:19:20.744Z,46.08
2023-04-10T04:21:47.948Z,44.03
2023-04-10T04:24:15.504Z,42.78
2023-04-10T04:26:42.808Z,44.38
2023-04-10T04:29:10.317Z,42.80
2023-04-10T04:31:37.643Z,45.08
2023-04-10T04:34:05.346Z,40.38
2023-04-10T04:36:32.599Z,38.22
2023-04-10T04:39:00.276Z,37.72
2023-04-10T04:41:27.623Z,35.85
2023-04-10T04:43:55.904Z,41.67
2023-04-10T04:46:23.471Z,41.47
2023-04-10T04:48:51.338Z,41.00
2023-04-10T04:51:18.599Z,43.60
2023-04-10T04:53:46.237Z,40.70
2023-04-10T04:56:13.602Z,36.60
2023-04-10T04:58:41.261Z,32.22
2023-04-10T05:01:09.154Z,43.15
2023-04-10T05:03:36.880Z,42.45
2023-04-10T05:06:05.433Z,40.08
2023-04-10T05:08:33.071Z,40.40
2023-04-10T05:11:00.595Z,38.75
2023-04-10T05:13:28.123Z,40.00
2023-04-10T05:15:55.581Z,43.85
2023-04-10T05:18:24.040Z,34.60
2023-04-10T05:20:51.628Z,38.80
2023-04-10T05:23:19.225Z,42.88
2023-04-10T05:25:46.601Z,42.17
2023-04-10T05:28:14.667Z,33.30
2023-04-10T05:30:41.870Z,38.67
2023-04-10T05:33:09.383Z,38.45
2023-04-10T05:35:36.712Z,39.40
2023-04-10T05:38:04.331Z,38.00
2023-04-10T05:40:31.749Z,40.35
2023-04-10T05:42:59.259Z,41.25
2023-04-10T05:45:28.702Z,37.10
2023-04-10T05:47:56.309Z,37.75
2023-04-10T05:50:23.655Z,37.63
2023-04-10T05:52:51.360Z,38.00
2023-04-10T05:55:18.812Z,40.45
2023-04-10T05:57:47.178Z,41.20
2023-04-10T06:00:16.324Z,36.35
2023-04-10T06:02:44.112Z,37.47
2023-04-10T06:05:11.809Z,38.60
2023-04-10T06:07:39.342Z,39.42
2023-04-10T06:10:07.755Z,36.92
2023-04-10T06:12:35.602Z,34.70
2023-04-10T06:15:02.962Z,37.00
2023-04-10T06:17:30.968Z,35.90
2023-04-10T06:20:01.063Z,31.98
2023-04-10T06:22:28.715Z,38.08
2023-04-10T06:24:55.979Z,36.10
2023-04-10T06:27:23.652Z,36.30
2023-04-10T06:29:51.283Z,34.65
2023-04-10T06:32:18.949Z,32.83
2023-04-10T06:34:46.555Z,38.22
2023-04-10T06:37:14.189Z,38.42
2023-04-10T06:39:41.377Z,39.05
2023-04-10T06:42:08.896Z,39.53
2023-04-10T06:44:36.142Z,38.70
2023-04-10T06:47:04.033Z,36.80
2023-04-10T06:49:31.324Z,39.10
2023-04-10T06:51:58.897Z,36.47
2023-04-10T06:54:26.267Z,37.35
2023-04-10T06:56:58.950Z,36.75
2023-04-10T06:59:26.349Z,39.05
2023-04-10T07:01:53.934Z,38.35
2023-04-10T07:04:21.301Z,37.38
2023-04-10T07:06:48.855Z,32.50
2023-04-10T07:09:16.122Z,34.13
2023-04-10T07:11:43.627Z,35.50
2023-04-10T07:14:11.307Z,40.78
2023-04-10T07:16:38.827Z,39.33
2023-04-10T07:19:06.147Z,40.08
2023-04-10T07:21:33.746Z,38.67
2023-04-10T07:24:01.371Z,36.03
2023-04-10T07:26:28.900Z,37.05
2023-04-10T07:28:56.233Z,39.90
2023-04-10T07:31:24.253Z,37.45
2023-04-10T07:33:51.942Z,39.28
2023-04-10T07:36:19.609Z,34.22
2023-04-10T07:38:46.926Z,39.03
2023-04-10T07:41:14.663Z,38.75
2023-04-10T07:43:42.021Z,38.50
2023-04-10T07:46:09.891Z,40.47
2023-04-10T07:48:37.334Z,37.85
2023-04-10T07:51:05.891Z,35.95
2023-04-10T07:53:33.168Z,38.72
2023-04-10T07:56:00.839Z,36.05
2023-04-10T07:58:28.311Z,35.40
2023-04-10T08:00:55.841Z,32.28
2023-04-10T08:03:23.725Z,37.05
2023-04-10T08:05:51.815Z,37.72
2023-04-10T08:08:19.052Z,36.15
2023-04-10T08:10:46.610Z,34.58
2023-04-10T08:13:13.966Z,36.10
2023-04-10T08:15:41.512Z,37.78
2023-04-10T08:18:08.759Z,36.63
2023-04-10T08:20:37.262Z,35.13
2023-04-10T08:23:19.288Z,34.95
2023-04-10T08:25:48.231Z,39.50
2023-04-10T08:28:15.494Z,38.45
2023-04-10T08:30:43.135Z,36.33
2023-04-10T08:33:10.433Z,35.90
2023-04-10T08:35:38.025Z,32.83
2023-04-10T08:38:13.707Z,38.38
2023-04-10T08:40:42.881Z,34.70
2023-04-10T08:43:10.539Z,34.20
2023-04-10T08:45:41.033Z,39.63
2023-04-10T08:48:11.131Z,35.72
2023-04-10T08:50:43.568Z,38.17
2023-04-10T08:53:15.950Z,37.17
2023-04-10T08:55:46.179Z,31.33
2023-04-10T08:58:14.069Z,28.73
2023-04-10T09:00:41.774Z,34.17
2023-04-10T09:03:15.223Z,34.53
2023-04-10T09:05:42.997Z,36.65
2023-04-10T09:08:13.910Z,35.28
2023-04-10T09:10:41.509Z,32.17
2023-04-10T09:13:08.957Z,33.10
2023-04-10T09:16:00.355Z,34.78
2023-04-10T09:18:47.704Z,34.53
2023-04-10T09:21:18.887Z,36.63
2023-04-10T09:23:48.355Z,36.45
2023-04-10T09:26:33.833Z,37.65
2023-04-10T09:29:07.311Z,36.33
2023-04-10T09:31:38.281Z,36.08
2023-04-10T09:34:23.032Z,34.95
2023-04-10T09:37:01.855Z,37.95
2023-04-10T09:39:43.969Z,39.58
2023-04-10T09:42:12.957Z,40.20
2023-04-10T09:44:42.485Z,39.80
2023-04-10T09:47:24.126Z,40.97
2023-04-10T09:50:02.920Z,36.58
2023-04-10T09:52:34.833Z,39.90
2023-04-10T09:55:05.765Z,37.50
2023-04-10T09:57:35.728Z,35.45
2023-04-10T10:00:07.174Z,42.70
2023-04-10T10:02:42.341Z,40.83
2023-04-10T10:05:11.342Z,46.80
2023-04-10T10:07:39.706Z,41.67
2023-04-10T10:10:11.421Z,38.50
2023-04-10T10:12:54.931Z,37.33
2023-04-10T10:15:41.017Z,39.55
2023-04-10T10:18:21.074Z,38.45
2023-04-10T10:20:50.573Z,38.03
2023-04-10T10:23:19.955Z,38.90
2023-04-10T10:25:48.905Z,38.53
2023-04-10T10:28:19.102Z,52.47
2023-04-10T10:30:51.526Z,44.20
2023-04-10T10:33:19.385Z,42.80
2023-04-10T10:35:47.123Z,46.45
2023-04-10T10:38:16.217Z,43.90
2023-04-10T10:40:57.420Z,43.95
2023-04-10T10:43:48.381Z,43.35
2023-04-10T10:46:38.073Z,45.60
2023-04-10T10:49:05.874Z,43.95
2023-04-10T10:51:50.969Z,43.58
2023-04-10T10:54:33.843Z,41.78
2023-04-10T10:57:03.170Z,41.45
2023-04-10T10:59:48.707Z,39.25
2023-04-10T11:02:18.641Z,40.15
2023-04-10T11:04:51.400Z,36.40
2023-04-10T11:07:19.285Z,38.20
2023-04-10T11:09:51.250Z,42.63
2023-04-10T11:12:25.932Z,43.33
2023-04-10T11:15:05.394Z,44.08
2023-04-10T11:17:54.509Z,42.90
2023-04-10T11:20:25.876Z,42.15
2023-04-10T11:23:11.158Z,41.55
2023-04-10T11:25:54.156Z,46.05
2023-04-10T11:28:33.612Z,44.60
2023-04-10T11:31:19.697Z,38.15
2023-04-10T11:34:08.981Z,37.80
2023-04-10T11:36:42.809Z,35.40
2023-04-10T11:39:13.526Z,36.42
2023-04-10T11:41:44.003Z,36.70
2023-04-10T11:44:35.871Z,36.90
2023-04-10T11:47:03.559Z,37.67
2023-04-10T11:49:34.514Z,36.53
2023-04-10T11:52:02.206Z,34.17
2023-04-10T11:54:30.315Z,39.13
2023-04-10T11:57:14.491Z,38.55
2023-04-10T11:59:41.692Z,37.00
2023-04-10T12:02:16.642Z,37.00
2023-04-10T12:04:44.759Z,30.48
2023-04-10T12:07:12.516Z,32.33
2023-04-10T12:09:40.684Z,29.25
2023-04-10T12:12:08.745Z,30.70
2023-04-10T12:14:42.758Z,25.40
2023-04-10T12:17:13.104Z,31.13
2023-04-10T12:19:41.677Z,28.45
2023-04-10T12:22:13.410Z,25.92
2023-04-10T12:24:53.358Z,24.67
2023-04-10T12:27:29.645Z,23.77
2023-04-10T12:29:59.142Z,22.73
2023-04-10T12:32:29.487Z,22.85
2023-04-10T12:34:58.913Z,24.55
2023-04-10T12:37:54.604Z,21.90
2023-04-10T12:40:21.877Z,19.33
2023-04-10T12:42:49.510Z,24.25
2023-04-10T12:45:16.757Z,20.10
2023-04-10T12:47:47.807Z,22.95
2023-04-10T12:50:17.987Z,20.77
2023-04-10T12:53:02.624Z,20.23
2023-04-10T12:55:29.972Z,21.38
2023-04-10T12:57:57.841Z,24.65
2023-04-10T13:00:26.442Z,22.30
2023-04-10T13:02:54.890Z,19.33
2023-04-10T13:05:22.526Z,20.02
2023-04-10T13:07:52.946Z,20.13
2023-04-10T13:10:20.460Z,16.83
2023-04-10T13:12:47.982Z,17.38
2023-04-10T13:15:17.008Z,14.23
2023-04-10T13:17:44.634Z,15.55
2023-04-10T13:20:13.454Z,16.67
2023-04-10T13:22:40.961Z,14.10
2023-04-10T13:25:08.857Z,15.43
2023-04-10T13:27:36.485Z,13.73
2023-04-10T13:30:04.115Z,15.75
2023-04-10T13:32:31.884Z,18.20
2023-04-10T13:34:59.233Z,21.42
2023-04-10T13:37:26.865Z,20.15
2023-04-10T13:39:55.028Z,18.85
2023-04-10T13:42:22.804Z,16.30
2023-04-10T13:44:50.187Z,18.52
2023-04-10T13:47:17.726Z,14.18
2023-04-10T13:49:45.007Z,16.83
2023-04-10T13:52:12.558Z,16.70
2023-04-10T13:54:39.842Z,16.55
2023-04-10T13:57:07.382Z,16.55
2023-04-10T13:59:34.699Z,18.02
2023-04-10T14:02:02.426Z,16.02
2023-04-10T14:04:29.704Z,17.00
2023-04-10T14:07:00.537Z,15.65
2023-04-10T14:09:28.502Z,14.68
2023-04-10T14:11:56.271Z,16.48
2023-04-10T14:14:26.191Z,13.88
2023-04-10T14:16:53.822Z,17.17
2023-04-10T14:19:21.381Z,17.83
2023-04-10T14:21:48.979Z,16.30
2023-04-10T14:24:16.210Z,15.93
2023-04-10T14:26:43.735Z,15.32
2023-04-10T14:29:11.200Z,17.45
2023-04-10T14:31:47.111Z,16.75
2023-04-10T14:34:22.146Z,18.40
2023-04-10T14:36:49.751Z,18.02
2023-04-10T14:39:17.101Z,17.08
2023-04-10T14:41:44.638Z,17.83
2023-04-10T14:44:11.847Z,17.27
2023-04-10T14:46:39.413Z,17.80
2023-04-10T14:49:06.683Z,17.45
2023-04-10T14:51:34.379Z,18.75
2023-04-10T14:54:02.559Z,17.13
2023-04-10T14:56:30.716Z,17.38
2023-04-10T14:58:58.006Z,18.30
2023-04-10T15:01:25.630Z,16.33
2023-04-10T15:03:53.733Z,16.40
2023-04-10T15:06:22.001Z,17.33
2023-04-10T15:08:49.325Z,19.17
2023-04-10T15:11:16.954Z,17.98
2023-04-10T15:13:44.177Z,17.95
2023-04-10T15:16:12.113Z,17.48
2023-04-10T15:18:39.340Z,16.48
2023-04-10T15:21:07.085Z,18.73
2023-04-10T15:23:34.566Z,17.17
2023-04-10T15:26:03.424Z,18.50
2023-04-10T15:28:30.928Z,18.67
2023-04-10T15:30:58.712Z,18.90
2023-04-10T15:33:26.061Z,18.75
2023-04-10T15:35:53.737Z,18.27
2023-04-10T15:38:21.105Z,16.88
2023-04-10T15:40:48.675Z,17.50
2023-04-10T15:43:15.967Z,17.52
2023-04-10T15:45:43.642Z,16.98
2023-04-10T15:48:10.972Z,19.80
2023-04-10T15:50:40.592Z,17.42
2023-04-10T15:53:07.893Z,16.98
2023-04-10T15:55:40.929Z,17.27
2023-04-10T15:58:08.197Z,18.58
2023-04-10T16:00:36.129Z,17.52
2023-04-10T16:03:03.816Z,17.33
2023-04-10T16:05:31.662Z,19.02
2023-04-10T16:07:59.059Z,17.15
2023-04-10T16:10:26.711Z,17.30
2023-04-10T16:12:56.599Z,18.27
2023-04-10T16:15:24.235Z,16.67
2023-04-10T16:17:51.518Z,16.60
2023-04-10T16:20:19.242Z,36.50
2023-04-10T16:22:46.523Z,22.02
2023-04-10T16:25:14.685Z,21.17
2023-04-10T16:27:42.041Z,13.90
2023-04-10T16:30:11.796Z,7.85
2023-04-10T16:32:39.253Z,9.05
2023-04-10T16:35:07.719Z,9.98
2023-04-10T16:37:35.335Z,6.90
2023-04-10T16:40:04.016Z,4.95
2023-04-10T16:42:31.907Z,4.13
2023-04-10T16:45:01.206Z,5.57
2023-04-10T16:47:29.009Z,3.42
2023-04-10T16:49:56.720Z,5.28
2023-04-10T16:52:23.966Z,6.32
2023-04-10T16:54:51.651Z,7.10
2023-04-10T16:57:19.056Z,8.23
2023-04-10T16:59:46.678Z,7.78
2023-04-10T17:02:13.993Z,7.47
2023-04-10T17:04:41.636Z,6.88
2023-04-10T17:07:08.961Z,8.98
2023-04-10T17:09:39.656Z,10.43
2023-04-10T17:12:07.088Z,11.30
2023-04-10T17:14:34.715Z,9.88
2023-04-10T17:17:02.174Z,10.60
2023-04-10T17:19:30.688Z,10.68
2023-04-10T17:21:58.410Z,10.65
2023-04-10T17:24:26.205Z,11.05
2023-04-10T17:26:53.584Z,11.65
2023-04-10T17:29:21.190Z,11.75
2023-04-10T17:31:48.659Z,11.50
2023-04-10T17:34:16.344Z,11.35
2023-04-10T17:36:43.657Z,13.52
2023-04-10T17:39:11.244Z,14.43
2023-04-10T17:41:38.590Z,14.77
2023-04-10T17:44:06.430Z,19.42
2023-04-10T17:46:33.827Z,15.57
2023-04-10T17:49:01.881Z,14.00
2023-04-10T17:51:29.520Z,18.00
2023-04-10T17:53:57.362Z,18.67
2023-04-10T17:56:24.760Z,24.33
2023-04-10T17:58:59.053Z,18.90
2023-04-10T18:01:29.876Z,14.50
2023-04-10T18:03:59.226Z,16.35
2023-04-10T18:06:27.753Z,14.13
2023-04-10T18:08:58.492Z,14.63
2023-04-10T18:11:25.960Z,13.73
2023-04-10T18:13:53.640Z,11.27
2023-04-10T18:16:20.979Z,11.52
2023-04-10T18:18:48.778Z,12.88
2023-04-10T18:21:16.419Z,13.35
2023-04-10T18:23:44.740Z,16.33
2023-04-10T18:26:13.158Z,17.17
2023-04-10T18:28:42.228Z,18.80
2023-04-10T18:31:09.819Z,21.77
2023-04-10T18:33:37.483Z,20.58
2023-04-10T18:36:05.213Z,18.75
2023-04-10T18:38:34.633Z,17.17
2023-04-10T18:41:10.999Z,19.13
2023-04-10T18:43:39.987Z,17.50
2023-04-10T18:46:07.790Z,16.88
2023-04-10T18:48:41.149Z,14.38
2023-04-10T18:51:11.780Z,17.63
2023-04-10T18:53:40.980Z,18.27
2023-04-10T18:56:08.815Z,21.63
2023-04-10T18:58:36.669Z,16.98
2023-04-10T19:01:04.176Z,17.27
2023-04-10T19:03:32.064Z,18.20
2023-04-10T19:05:59.455Z,18.73
2023-04-10T19:08:27.104Z,14.63
2023-04-10T19:10:54.384Z,17.95
2023-04-10T19:13:22.928Z,21.05
2023-04-10T19:15:51.072Z,16.35
2023-04-10T19:18:18.696Z,18.05
2023-04-10T19:20:49.756Z,19.13
2023-04-10T19:23:19.369Z,21.38
2023-04-10T19:25:47.340Z,20.48
2023-04-10T19:28:14.893Z,22.05
2023-04-10T19:30:42.173Z,23.73
2023-04-10T19:33:09.744Z,22.38
2023-04-10T19:35:37.049Z,16.63
2023-04-10T19:38:04.768Z,16.55
2023-04-10T19:40:32.276Z,15.02
2023-04-10T19:43:01.988Z,22.77
2023-04-10T19:45:29.610Z,25.52
2023-04-10T19:47:57.519Z,24.45
2023-04-10T19:50:25.015Z,22.52
2023-04-10T19:52:52.654Z,20.27
2023-04-10T19:55:20.254Z,19.63
2023-04-10T19:57:48.428Z,21.33
2023-04-10T20:00:16.058Z,22.02
2023-04-10T20:02:44.115Z,21.10
2023-04-10T20:05:11.988Z,22.40
2023-04-10T20:07:39.734Z,23.63
2023-04-10T20:10:08.255Z,20.38
2023-04-10T20:12:36.013Z,22.67
2023-04-10T20:15:05.224Z,19.13
2023-04-10T20:17:32.926Z,21.10
2023-04-10T20:20:00.415Z,23.50
2023-04-10T20:22:29.390Z,23.48
2023-04-10T20:24:56.643Z,20.38
2023-04-10T20:27:24.800Z,31.08
2023-04-10T20:29:52.298Z,29.02
2023-04-10T20:32:19.944Z,28.83
2023-04-10T20:34:47.481Z,31.08
2023-04-10T20:37:18.790Z,32.72
2023-04-10T20:39:46.183Z,32.75
2023-04-10T20:42:13.766Z,37.15
2023-04-10T20:44:41.042Z,30.65
2023-04-10T20:47:08.889Z,26.52
2023-04-10T20:49:39.319Z,27.50
2023-04-10T20:52:07.341Z,28.15
2023-04-10T20:54:34.664Z,31.95
2023-04-10T20:57:02.400Z,29.52
2023-04-10T20:59:30.177Z,32.40
2023-04-10T21:01:59.344Z,31.42
2023-04-10T21:04:26.713Z,32.50
2023-04-10T21:06:54.431Z,29.65
2023-04-10T21:09:21.794Z,31.40
2023-04-10T21:11:49.406Z,33.08
2023-04-10T21:14:16.745Z,33.65
2023-04-10T21:16:45.989Z,35.35
2023-04-10T21:19:14.033Z,34.53
2023-04-10T21:21:41.722Z,35.75
2023-04-10T21:24:09.028Z,35.33
2023-04-10T21:26:36.801Z,36.55
2023-04-10T21:29:04.173Z,40.50
2023-04-10T21:31:31.846Z,38.13
2023-04-10T21:33:59.096Z,37.60
2023-04-10T21:36:26.727Z,36.75
2023-04-10T21:38:54.248Z,37.53
2023-04-10T21:41:22.038Z,41.03
2023-04-10T21:43:49.456Z,43.55
2023-04-10T21:46:17.150Z,42.80
2023-04-10T21:48:44.410Z,42.65
2023-04-10T21:51:11.996Z,44.05
2023-04-10T21:53:39.453Z,45.53
2023-04-10T21:56:07.621Z,41.50
2023-04-10T21:58:35.011Z,44.83
2023-04-10T22:01:02.583Z,44.10
2023-04-10T22:03:30.108Z,47.15
2023-04-10T22:05:57.775Z,46.67
2023-04-10T22:08:25.406Z,48.85
2023-04-10T22:10:53.031Z,47.90
2023-04-10T22:13:30.453Z,48.60
2023-04-10T22:16:01.918Z,49.70
2023-04-10T22:18:29.713Z,48.10
2023-04-10T22:20:57.391Z,48.80
2023-04-10T22:23:24.729Z,50.63
2023-04-10T22:25:52.276Z,48.08
2023-04-10T22:28:19.551Z,52.15
2023-04-10T22:30:47.217Z,49.20
2023-04-10T22:33:15.638Z,53.47
2023-04-10T22:35:43.311Z,46.08
2023-04-10T22:38:10.794Z,47.50
2023-04-10T22:40:38.358Z,42.67
2023-04-10T22:43:05.656Z,47.55
2023-04-10T22:45:33.402Z,36.63
2023-04-10T22:48:00.672Z,37.47
2023-04-10T22:50:28.254Z,44.50
2023-04-10T22:52:55.676Z,44.08
2023-04-10T22:55:23.467Z,47.00
2023-04-10T22:57:50.819Z,41.95
2023-04-10T23:00:18.722Z,33.25
2023-04-10T23:02:46.373Z,38.28
2023-04-10T23:05:14.110Z,38.17
2023-04-10T23:07:41.431Z,32.13
2023-04-10T23:10:09.499Z,29.77
2023-04-10T23:12:37.862Z,27.70
2023-04-10T23:15:07.509Z,27.98
2023-04-10T23:17:35.075Z,34.55
2023-04-10T23:20:02.752Z,29.52
2023-04-10T23:22:30.410Z,26.20
2023-04-10T23:24:58.216Z,23.30
2023-04-10T23:27:25.532Z,33.55
2023-04-10T23:29:53.210Z,37.25
2023-04-10T23:32:20.506Z,30.23
2023-04-10T23:34:48.038Z,31.73
2023-04-10T23:37:15.397Z,24.85
2023-04-10T23:39:42.970Z,37.80
2023-04-10T23:42:10.245Z,36.47
2023-04-10T23:44:37.782Z,37.97
2023-04-10T23:47:06.339Z,45.28
2023-04-10T23:49:35.391Z,51.08
2023-04-10T23:52:02.775Z,54.15
2023-04-10T23:54:30.709Z,47.80
2023-04-10T23:56:58.006Z,53.85
2023-04-10T23:59:25.618Z,51.25
